sensor_id;sensor_type;location;lat;lon;timestamp;P1;durP1;ratioP1;P2;durP2;ratioP2
65665;SDS011;52365;47.464;18.976;2023-01-30T00:00:26;24.55;;;16.40;;
65665;SDS011;52365;47.464;18.976;2023-01-30T00:01:03;24.95;;;16.17;;
65665;SDS011;52365;47.464;18.976;2023-01-30T00:01:41;24.67;;;16.05;;
65665;SDS011;52365;47.464;18.976;2023-01-30T00:02:17;24.20;;;16.20;;
65665;SDS011;52365;47.464;18.976;2023-01-30T00:02:53;26.80;;;17.12;;
65665;SDS011;52365;47.464;18.976;2023-01-30T00:03:29;27.50;;;17.23;;
65665;SDS011;52365;47.464;18.976;2023-01-30T00:04:06;26.12;;;17.05;;
65665;SDS011;52365;47.464;18.976;2023-01-30T00:04:42;25.40;;;16.87;;
65665;SDS011;52365;47.464;18.976;2023-01-30T00:05:18;26.87;;;17.10;;
65665;SDS011;52365;47.464;18.976;2023-01-30T00:05:54;29.23;;;18.02;;
65665;SDS011;52365;47.464;18.976;2023-01-30T00:06:30;29.75;;;18.10;;
65665;SDS011;52365;47.464;18.976;2023-01-30T00:07:06;26.37;;;17.33;;
65665;SDS011;52365;47.464;18.976;2023-01-30T00:07:42;28.48;;;17.75;;
65665;SDS011;52365;47.464;18.976;2023-01-30T00:08:18;29.45;;;17.98;;
65665;SDS011;52365;47.464;18.976;2023-01-30T00:08:55;28.60;;;17.67;;
65665;SDS011;52365;47.464;18.976;2023-01-30T00:09:31;28.95;;;18.52;;
65665;SDS011;52365;47.464;18.976;2023-01-30T00:10:07;28.52;;;17.27;;
65665;SDS011;52365;47.464;18.976;2023-01-30T00:10:44;30.00;;;18.23;;
65665;SDS011;52365;47.464;18.976;2023-01-30T00:11:21;29.92;;;17.62;;
65665;SDS011;52365;47.464;18.976;2023-01-30T00:11:57;27.25;;;17.27;;
65665;SDS011;52365;47.464;18.976;2023-01-30T00:12:33;28.85;;;17.37;;
65665;SDS011;52365;47.464;18.976;2023-01-30T00:13:09;28.85;;;17.30;;
65665;SDS011;52365;47.464;18.976;2023-01-30T00:13:46;28.92;;;17.77;;
65665;SDS011;52365;47.464;18.976;2023-01-30T00:14:23;26.87;;;17.55;;
65665;SDS011;52365;47.464;18.976;2023-01-30T00:14:59;28.15;;;17.67;;
65665;SDS011;52365;47.464;18.976;2023-01-30T00:15:35;27.80;;;17.80;;
65665;SDS011;52365;47.464;18.976;2023-01-30T00:16:11;27.02;;;17.60;;
65665;SDS011;52365;47.464;18.976;2023-01-30T00:16:48;27.75;;;17.35;;
65665;SDS011;52365;47.464;18.976;2023-01-30T00:17:24;28.25;;;17.67;;
65665;SDS011;52365;47.464;18.976;2023-01-30T00:18:00;26.80;;;17.40;;
65665;SDS011;52365;47.464;18.976;2023-01-30T00:18:36;28.10;;;17.23;;
65665;SDS011;52365;47.464;18.976;2023-01-30T00:19:13;28.65;;;17.83;;
65665;SDS011;52365;47.464;18.976;2023-01-30T00:19:49;29.23;;;17.90;;
65665;SDS011;52365;47.464;18.976;2023-01-30T00:20:25;28.75;;;17.95;;
65665;SDS011;52365;47.464;18.976;2023-01-30T00:21:03;28.05;;;17.83;;
65665;SDS011;52365;47.464;18.976;2023-01-30T00:21:41;29.87;;;17.90;;
65665;SDS011;52365;47.464;18.976;2023-01-30T00:22:17;29.87;;;18.33;;
65665;SDS011;52365;47.464;18.976;2023-01-30T00:22:53;28.65;;;18.00;;
65665;SDS011;52365;47.464;18.976;2023-01-30T00:23:31;29.35;;;17.67;;
65665;SDS011;52365;47.464;18.976;2023-01-30T00:24:09;28.35;;;17.70;;
65665;SDS011;52365;47.464;18.976;2023-01-30T00:24:45;30.05;;;17.73;;
65665;SDS011;52365;47.464;18.976;2023-01-30T00:25:21;30.02;;;17.95;;
65665;SDS011;52365;47.464;18.976;2023-01-30T00:25:57;30.52;;;18.15;;
65665;SDS011;52365;47.464;18.976;2023-01-30T00:26:33;28.70;;;18.27;;
65665;SDS011;52365;47.464;18.976;2023-01-30T00:27:09;29.35;;;17.95;;
65665;SDS011;52365;47.464;18.976;2023-01-30T00:27:46;31.42;;;19.00;;
65665;SDS011;52365;47.464;18.976;2023-01-30T00:28:22;32.90;;;18.20;;
65665;SDS011;52365;47.464;18.976;2023-01-30T00:28:58;34.38;;;19.15;;
65665;SDS011;52365;47.464;18.976;2023-01-30T00:29:34;36.75;;;20.33;;
65665;SDS011;52365;47.464;18.976;2023-01-30T00:30:10;34.63;;;19.75;;
65665;SDS011;52365;47.464;18.976;2023-01-30T00:30:47;31.70;;;19.12;;
65665;SDS011;52365;47.464;18.976;2023-01-30T00:31:26;34.38;;;18.83;;
65665;SDS011;52365;47.464;18.976;2023-01-30T00:32:02;32.95;;;19.08;;
65665;SDS011;52365;47.464;18.976;2023-01-30T00:32:38;33.03;;;19.00;;
65665;SDS011;52365;47.464;18.976;2023-01-30T00:33:14;33.15;;;19.75;;
65665;SDS011;52365;47.464;18.976;2023-01-30T00:33:50;33.13;;;18.45;;
65665;SDS011;52365;47.464;18.976;2023-01-30T00:34:26;29.92;;;18.95;;
65665;SDS011;52365;47.464;18.976;2023-01-30T00:35:02;32.10;;;19.10;;
65665;SDS011;52365;47.464;18.976;2023-01-30T00:35:42;33.83;;;19.33;;
65665;SDS011;52365;47.464;18.976;2023-01-30T00:36:19;33.83;;;19.05;;
65665;SDS011;52365;47.464;18.976;2023-01-30T00:36:55;32.92;;;18.92;;
65665;SDS011;52365;47.464;18.976;2023-01-30T00:37:31;33.15;;;19.50;;
65665;SDS011;52365;47.464;18.976;2023-01-30T00:38:07;30.70;;;18.62;;
65665;SDS011;52365;47.464;18.976;2023-01-30T00:38:43;31.73;;;18.98;;
65665;SDS011;52365;47.464;18.976;2023-01-30T00:39:19;30.77;;;18.77;;
65665;SDS011;52365;47.464;18.976;2023-01-30T00:39:55;29.98;;;18.60;;
65665;SDS011;52365;47.464;18.976;2023-01-30T00:40:31;30.48;;;19.00;;
65665;SDS011;52365;47.464;18.976;2023-01-30T00:41:07;31.62;;;18.95;;
65665;SDS011;52365;47.464;18.976;2023-01-30T00:41:45;30.27;;;18.75;;
65665;SDS011;52365;47.464;18.976;2023-01-30T00:42:39;31.12;;;18.75;;
65665;SDS011;52365;47.464;18.976;2023-01-30T00:43:34;30.05;;;18.42;;
65665;SDS011;52365;47.464;18.976;2023-01-30T00:44:28;30.10;;;19.08;;
65665;SDS011;52365;47.464;18.976;2023-01-30T00:45:23;29.15;;;19.08;;
65665;SDS011;52365;47.464;18.976;2023-01-30T00:47:23;28.35;;;18.40;;
65665;SDS011;52365;47.464;18.976;2023-01-30T00:47:59;30.35;;;17.77;;
65665;SDS011;52365;47.464;18.976;2023-01-30T00:48:36;28.40;;;18.67;;
65665;SDS011;52365;47.464;18.976;2023-01-30T00:49:12;28.70;;;17.87;;
65665;SDS011;52365;47.464;18.976;2023-01-30T00:49:48;28.67;;;18.27;;
65665;SDS011;52365;47.464;18.976;2023-01-30T00:50:24;29.55;;;18.48;;
65665;SDS011;52365;47.464;18.976;2023-01-30T00:51:16;30.62;;;18.67;;
65665;SDS011;52365;47.464;18.976;2023-01-30T00:51:52;30.10;;;18.62;;
65665;SDS011;52365;47.464;18.976;2023-01-30T00:52:28;29.70;;;18.35;;
65665;SDS011;52365;47.464;18.976;2023-01-30T00:53:05;27.87;;;18.10;;
65665;SDS011;52365;47.464;18.976;2023-01-30T00:53:41;28.73;;;18.33;;
65665;SDS011;52365;47.464;18.976;2023-01-30T00:54:17;28.48;;;17.73;;
65665;SDS011;52365;47.464;18.976;2023-01-30T00:54:53;31.17;;;18.83;;
65665;SDS011;52365;47.464;18.976;2023-01-30T00:55:29;30.75;;;18.58;;
65665;SDS011;52365;47.464;18.976;2023-01-30T00:56:05;29.27;;;18.30;;
65665;SDS011;52365;47.464;18.976;2023-01-30T00:56:41;29.75;;;19.08;;
65665;SDS011;52365;47.464;18.976;2023-01-30T00:57:17;29.02;;;18.35;;
65665;SDS011;52365;47.464;18.976;2023-01-30T00:57:53;30.20;;;18.98;;
65665;SDS011;52365;47.464;18.976;2023-01-30T00:58:29;27.87;;;17.87;;
65665;SDS011;52365;47.464;18.976;2023-01-30T00:59:05;31.20;;;18.90;;
65665;SDS011;52365;47.464;18.976;2023-01-30T00:59:41;31.23;;;18.10;;
65665;SDS011;52365;47.464;18.976;2023-01-30T01:00:17;29.98;;;18.75;;
65665;SDS011;52365;47.464;18.976;2023-01-30T01:00:55;31.70;;;19.25;;
65665;SDS011;52365;47.464;18.976;2023-01-30T01:01:31;30.77;;;19.27;;
65665;SDS011;52365;47.464;18.976;2023-01-30T01:02:07;29.40;;;18.83;;
65665;SDS011;52365;47.464;18.976;2023-01-30T01:02:43;33.63;;;19.40;;
65665;SDS011;52365;47.464;18.976;2023-01-30T01:03:19;32.88;;;19.08;;
65665;SDS011;52365;47.464;18.976;2023-01-30T01:03:55;29.30;;;18.35;;
65665;SDS011;52365;47.464;18.976;2023-01-30T01:04:31;30.70;;;19.45;;
65665;SDS011;52365;47.464;18.976;2023-01-30T01:05:17;30.88;;;20.05;;
65665;SDS011;52365;47.464;18.976;2023-01-30T01:05:53;32.45;;;19.85;;
65665;SDS011;52365;47.464;18.976;2023-01-30T01:06:29;29.75;;;18.95;;
65665;SDS011;52365;47.464;18.976;2023-01-30T01:07:05;30.15;;;19.15;;
65665;SDS011;52365;47.464;18.976;2023-01-30T01:07:41;31.85;;;19.85;;
65665;SDS011;52365;47.464;18.976;2023-01-30T01:08:17;32.30;;;18.83;;
65665;SDS011;52365;47.464;18.976;2023-01-30T01:08:54;30.58;;;19.10;;
65665;SDS011;52365;47.464;18.976;2023-01-30T01:09:30;31.08;;;19.08;;
65665;SDS011;52365;47.464;18.976;2023-01-30T01:10:06;31.33;;;19.52;;
65665;SDS011;52365;47.464;18.976;2023-01-30T01:10:43;32.63;;;19.65;;
65665;SDS011;52365;47.464;18.976;2023-01-30T01:11:19;31.15;;;18.85;;
65665;SDS011;52365;47.464;18.976;2023-01-30T01:12:01;28.83;;;18.80;;
65665;SDS011;52365;47.464;18.976;2023-01-30T01:12:38;29.83;;;18.90;;
65665;SDS011;52365;47.464;18.976;2023-01-30T01:13:14;31.85;;;19.48;;
65665;SDS011;52365;47.464;18.976;2023-01-30T01:13:53;30.00;;;18.17;;
65665;SDS011;52365;47.464;18.976;2023-01-30T01:14:31;28.08;;;17.87;;
65665;SDS011;52365;47.464;18.976;2023-01-30T01:15:07;25.73;;;16.73;;
65665;SDS011;52365;47.464;18.976;2023-01-30T01:15:44;25.35;;;17.02;;
65665;SDS011;52365;47.464;18.976;2023-01-30T01:16:20;28.95;;;17.58;;
65665;SDS011;52365;47.464;18.976;2023-01-30T01:16:56;29.23;;;18.42;;
65665;SDS011;52365;47.464;18.976;2023-01-30T01:17:32;31.30;;;19.08;;
65665;SDS011;52365;47.464;18.976;2023-01-30T01:18:09;29.08;;;18.52;;
65665;SDS011;52365;47.464;18.976;2023-01-30T01:18:45;30.95;;;19.05;;
65665;SDS011;52365;47.464;18.976;2023-01-30T01:19:21;30.65;;;19.35;;
65665;SDS011;52365;47.464;18.976;2023-01-30T01:19:57;29.85;;;19.12;;
65665;SDS011;52365;47.464;18.976;2023-01-30T01:20:33;32.55;;;19.55;;
65665;SDS011;52365;47.464;18.976;2023-01-30T01:21:09;31.15;;;19.58;;
65665;SDS011;52365;47.464;18.976;2023-01-30T01:21:46;32.20;;;20.20;;
65665;SDS011;52365;47.464;18.976;2023-01-30T01:22:22;34.30;;;19.80;;
65665;SDS011;52365;47.464;18.976;2023-01-30T01:22:58;32.90;;;19.77;;
65665;SDS011;52365;47.464;18.976;2023-01-30T01:23:34;31.50;;;19.75;;
65665;SDS011;52365;47.464;18.976;2023-01-30T01:24:10;30.62;;;18.77;;
65665;SDS011;52365;47.464;18.976;2023-01-30T01:24:48;31.65;;;19.40;;
65665;SDS011;52365;47.464;18.976;2023-01-30T01:25:24;31.00;;;19.27;;
65665;SDS011;52365;47.464;18.976;2023-01-30T01:26:01;31.73;;;19.77;;
65665;SDS011;52365;47.464;18.976;2023-01-30T01:26:37;30.95;;;19.02;;
65665;SDS011;52365;47.464;18.976;2023-01-30T01:27:13;30.37;;;19.17;;
65665;SDS011;52365;47.464;18.976;2023-01-30T01:27:49;29.87;;;18.55;;
65665;SDS011;52365;47.464;18.976;2023-01-30T01:28:26;33.33;;;20.00;;
65665;SDS011;52365;47.464;18.976;2023-01-30T01:29:02;33.53;;;19.83;;
65665;SDS011;52365;47.464;18.976;2023-01-30T01:29:38;31.65;;;19.73;;
65665;SDS011;52365;47.464;18.976;2023-01-30T01:30:14;32.53;;;20.27;;
65665;SDS011;52365;47.464;18.976;2023-01-30T01:30:50;32.30;;;19.87;;
65665;SDS011;52365;47.464;18.976;2023-01-30T01:31:26;31.60;;;19.62;;
65665;SDS011;52365;47.464;18.976;2023-01-30T01:32:02;31.50;;;19.08;;
65665;SDS011;52365;47.464;18.976;2023-01-30T01:32:39;32.35;;;19.27;;
65665;SDS011;52365;47.464;18.976;2023-01-30T01:33:15;32.63;;;19.40;;
65665;SDS011;52365;47.464;18.976;2023-01-30T01:33:51;31.10;;;18.83;;
65665;SDS011;52365;47.464;18.976;2023-01-30T01:34:27;33.33;;;19.87;;
65665;SDS011;52365;47.464;18.976;2023-01-30T01:35:04;31.55;;;19.48;;
65665;SDS011;52365;47.464;18.976;2023-01-30T01:35:40;33.83;;;20.33;;
65665;SDS011;52365;47.464;18.976;2023-01-30T01:36:16;32.70;;;19.77;;
65665;SDS011;52365;47.464;18.976;2023-01-30T01:36:53;31.12;;;19.48;;
65665;SDS011;52365;47.464;18.976;2023-01-30T01:37:29;30.60;;;19.35;;
65665;SDS011;52365;47.464;18.976;2023-01-30T01:38:05;32.13;;;19.50;;
65665;SDS011;52365;47.464;18.976;2023-01-30T01:38:41;32.45;;;19.90;;
65665;SDS011;52365;47.464;18.976;2023-01-30T01:39:17;31.23;;;19.55;;
65665;SDS011;52365;47.464;18.976;2023-01-30T01:39:53;31.30;;;19.02;;
65665;SDS011;52365;47.464;18.976;2023-01-30T01:40:49;32.03;;;19.83;;
65665;SDS011;52365;47.464;18.976;2023-01-30T01:41:36;31.10;;;19.23;;
65665;SDS011;52365;47.464;18.976;2023-01-30T01:42:12;31.77;;;19.77;;
65665;SDS011;52365;47.464;18.976;2023-01-30T01:42:48;32.17;;;19.70;;
65665;SDS011;52365;47.464;18.976;2023-01-30T01:43:25;33.80;;;19.90;;
65665;SDS011;52365;47.464;18.976;2023-01-30T01:44:08;32.22;;;19.37;;
65665;SDS011;52365;47.464;18.976;2023-01-30T01:45:45;34.33;;;20.45;;
65665;SDS011;52365;47.464;18.976;2023-01-30T01:46:25;31.77;;;18.52;;
65665;SDS011;52365;47.464;18.976;2023-01-30T01:47:05;32.55;;;19.73;;
65665;SDS011;52365;47.464;18.976;2023-01-30T01:47:48;32.22;;;20.02;;
65665;SDS011;52365;47.464;18.976;2023-01-30T01:48:39;32.38;;;19.27;;
65665;SDS011;52365;47.464;18.976;2023-01-30T01:49:24;31.45;;;19.42;;
65665;SDS011;52365;47.464;18.976;2023-01-30T01:50:03;32.40;;;19.30;;
65665;SDS011;52365;47.464;18.976;2023-01-30T01:50:41;32.53;;;19.60;;
65665;SDS011;52365;47.464;18.976;2023-01-30T01:51:37;34.00;;;20.27;;
65665;SDS011;52365;47.464;18.976;2023-01-30T01:52:35;32.30;;;19.30;;
65665;SDS011;52365;47.464;18.976;2023-01-30T01:53:12;35.50;;;20.17;;
65665;SDS011;52365;47.464;18.976;2023-01-30T01:54:01;35.35;;;19.77;;
65665;SDS011;52365;47.464;18.976;2023-01-30T01:54:44;34.45;;;20.45;;
65665;SDS011;52365;47.464;18.976;2023-01-30T01:55:24;32.92;;;20.30;;
65665;SDS011;52365;47.464;18.976;2023-01-30T01:56:02;33.65;;;19.98;;
65665;SDS011;52365;47.464;18.976;2023-01-30T01:56:41;30.70;;;19.15;;
65665;SDS011;52365;47.464;18.976;2023-01-30T01:57:25;33.97;;;19.55;;
65665;SDS011;52365;47.464;18.976;2023-01-30T01:58:07;31.77;;;19.48;;
65665;SDS011;52365;47.464;18.976;2023-01-30T01:58:47;32.92;;;20.40;;
65665;SDS011;52365;47.464;18.976;2023-01-30T01:59:30;32.25;;;19.95;;
65665;SDS011;52365;47.464;18.976;2023-01-30T02:00:47;32.60;;;19.92;;
65665;SDS011;52365;47.464;18.976;2023-01-30T02:01:24;34.28;;;20.17;;
65665;SDS011;52365;47.464;18.976;2023-01-30T02:02:02;34.85;;;21.17;;
65665;SDS011;52365;47.464;18.976;2023-01-30T02:02:44;33.92;;;20.52;;
65665;SDS011;52365;47.464;18.976;2023-01-30T02:03:44;31.67;;;19.33;;
65665;SDS011;52365;47.464;18.976;2023-01-30T02:04:24;34.67;;;20.65;;
65665;SDS011;52365;47.464;18.976;2023-01-30T02:05:21;33.92;;;20.55;;
65665;SDS011;52365;47.464;18.976;2023-01-30T02:05:59;35.58;;;20.80;;
65665;SDS011;52365;47.464;18.976;2023-01-30T02:06:37;35.60;;;21.70;;
65665;SDS011;52365;47.464;18.976;2023-01-30T02:07:17;36.95;;;21.27;;
65665;SDS011;52365;47.464;18.976;2023-01-30T02:08:30;33.20;;;20.15;;
65665;SDS011;52365;47.464;18.976;2023-01-30T02:09:03;34.03;;;20.85;;
65665;SDS011;52365;47.464;18.976;2023-01-30T02:09:42;30.65;;;19.40;;
65665;SDS011;52365;47.464;18.976;2023-01-30T02:10:19;35.20;;;19.85;;
65665;SDS011;52365;47.464;18.976;2023-01-30T02:11:57;32.30;;;20.10;;
65665;SDS011;52365;47.464;18.976;2023-01-30T02:12:37;34.20;;;20.33;;
65665;SDS011;52365;47.464;18.976;2023-01-30T02:13:15;33.60;;;19.92;;
65665;SDS011;52365;47.464;18.976;2023-01-30T02:13:51;33.95;;;20.55;;
65665;SDS011;52365;47.464;18.976;2023-01-30T02:14:29;34.88;;;20.08;;
65665;SDS011;52365;47.464;18.976;2023-01-30T02:15:08;33.88;;;20.37;;
65665;SDS011;52365;47.464;18.976;2023-01-30T02:15:44;35.13;;;20.35;;
65665;SDS011;52365;47.464;18.976;2023-01-30T02:16:20;33.80;;;20.42;;
65665;SDS011;52365;47.464;18.976;2023-01-30T02:16:56;32.90;;;20.48;;
65665;SDS011;52365;47.464;18.976;2023-01-30T02:17:32;32.38;;;19.95;;
65665;SDS011;52365;47.464;18.976;2023-01-30T02:18:08;33.30;;;19.95;;
65665;SDS011;52365;47.464;18.976;2023-01-30T02:18:45;33.72;;;20.35;;
65665;SDS011;52365;47.464;18.976;2023-01-30T02:24:34;33.60;;;19.80;;
65665;SDS011;52365;47.464;18.976;2023-01-30T02:29:22;30.45;;;19.27;;
65665;SDS011;52365;47.464;18.976;2023-01-30T02:29:59;34.75;;;19.73;;
65665;SDS011;52365;47.464;18.976;2023-01-30T02:32:17;32.35;;;19.83;;
65665;SDS011;52365;47.464;18.976;2023-01-30T02:39:07;33.95;;;20.88;;
65665;SDS011;52365;47.464;18.976;2023-01-30T02:44:41;33.83;;;20.23;;
65665;SDS011;52365;47.464;18.976;2023-01-30T02:45:35;35.38;;;20.02;;
65665;SDS011;52365;47.464;18.976;2023-01-30T02:46:25;34.38;;;20.08;;
65665;SDS011;52365;47.464;18.976;2023-01-30T02:47:10;32.40;;;19.37;;
65665;SDS011;52365;47.464;18.976;2023-01-30T02:49:37;34.15;;;20.05;;
65665;SDS011;52365;47.464;18.976;2023-01-30T02:50:32;31.87;;;19.52;;
65665;SDS011;52365;47.464;18.976;2023-01-30T02:51:20;33.35;;;19.70;;
65665;SDS011;52365;47.464;18.976;2023-01-30T02:51:59;32.22;;;19.37;;
65665;SDS011;52365;47.464;18.976;2023-01-30T02:52:38;34.40;;;20.95;;
65665;SDS011;52365;47.464;18.976;2023-01-30T02:53:14;31.58;;;19.27;;
65665;SDS011;52365;47.464;18.976;2023-01-30T02:53:51;31.83;;;19.98;;
65665;SDS011;52365;47.464;18.976;2023-01-30T02:54:29;31.95;;;19.37;;
65665;SDS011;52365;47.464;18.976;2023-01-30T02:55:06;31.42;;;19.05;;
65665;SDS011;52365;47.464;18.976;2023-01-30T02:55:44;33.17;;;19.90;;
65665;SDS011;52365;47.464;18.976;2023-01-30T02:56:20;34.38;;;20.02;;
65665;SDS011;52365;47.464;18.976;2023-01-30T02:56:57;33.47;;;19.73;;
65665;SDS011;52365;47.464;18.976;2023-01-30T02:57:34;35.05;;;19.98;;
65665;SDS011;52365;47.464;18.976;2023-01-30T02:58:10;34.78;;;19.20;;
65665;SDS011;52365;47.464;18.976;2023-01-30T02:58:48;36.28;;;20.23;;
65665;SDS011;52365;47.464;18.976;2023-01-30T03:00:07;36.53;;;20.83;;
65665;SDS011;52365;47.464;18.976;2023-01-30T03:00:51;38.70;;;20.73;;
65665;SDS011;52365;47.464;18.976;2023-01-30T03:08:07;36.97;;;19.67;;
65665;SDS011;52365;47.464;18.976;2023-01-30T03:11:43;33.10;;;19.12;;
65665;SDS011;52365;47.464;18.976;2023-01-30T03:13:10;35.25;;;19.27;;
65665;SDS011;52365;47.464;18.976;2023-01-30T03:13:55;34.28;;;19.67;;
65665;SDS011;52365;47.464;18.976;2023-01-30T03:16:45;35.33;;;19.98;;
65665;SDS011;52365;47.464;18.976;2023-01-30T03:17:23;34.03;;;20.23;;
65665;SDS011;52365;47.464;18.976;2023-01-30T03:18:01;35.60;;;20.73;;
65665;SDS011;52365;47.464;18.976;2023-01-30T03:18:39;34.05;;;19.95;;
65665;SDS011;52365;47.464;18.976;2023-01-30T03:19:16;34.53;;;20.15;;
65665;SDS011;52365;47.464;18.976;2023-01-30T03:19:54;34.17;;;20.40;;
65665;SDS011;52365;47.464;18.976;2023-01-30T03:20:34;34.00;;;20.23;;
65665;SDS011;52365;47.464;18.976;2023-01-30T03:21:12;33.55;;;20.50;;
65665;SDS011;52365;47.464;18.976;2023-01-30T03:21:48;36.15;;;20.30;;
65665;SDS011;52365;47.464;18.976;2023-01-30T03:22:24;35.67;;;20.85;;
65665;SDS011;52365;47.464;18.976;2023-01-30T03:23:00;33.17;;;19.90;;
65665;SDS011;52365;47.464;18.976;2023-01-30T03:23:36;33.60;;;20.25;;
65665;SDS011;52365;47.464;18.976;2023-01-30T03:24:13;34.80;;;19.98;;
65665;SDS011;52365;47.464;18.976;2023-01-30T03:24:50;32.88;;;19.15;;
65665;SDS011;52365;47.464;18.976;2023-01-30T03:25:28;32.65;;;19.58;;
65665;SDS011;52365;47.464;18.976;2023-01-30T03:26:05;35.90;;;20.60;;
65665;SDS011;52365;47.464;18.976;2023-01-30T03:26:47;32.35;;;19.12;;
65665;SDS011;52365;47.464;18.976;2023-01-30T03:27:44;32.55;;;19.33;;
65665;SDS011;52365;47.464;18.976;2023-01-30T03:28:20;32.22;;;19.37;;
65665;SDS011;52365;47.464;18.976;2023-01-30T03:28:56;31.30;;;18.90;;
65665;SDS011;52365;47.464;18.976;2023-01-30T03:29:33;32.08;;;19.20;;
65665;SDS011;52365;47.464;18.976;2023-01-30T03:30:09;31.98;;;19.62;;
65665;SDS011;52365;47.464;18.976;2023-01-30T03:30:46;33.40;;;19.80;;
65665;SDS011;52365;47.464;18.976;2023-01-30T03:31:22;33.30;;;19.50;;
65665;SDS011;52365;47.464;18.976;2023-01-30T03:31:58;32.67;;;19.62;;
65665;SDS011;52365;47.464;18.976;2023-01-30T03:32:34;33.17;;;19.92;;
65665;SDS011;52365;47.464;18.976;2023-01-30T03:33:10;30.92;;;19.20;;
65665;SDS011;52365;47.464;18.976;2023-01-30T03:33:46;30.52;;;18.92;;
65665;SDS011;52365;47.464;18.976;2023-01-30T03:34:23;31.75;;;19.30;;
65665;SDS011;52365;47.464;18.976;2023-01-30T03:34:59;32.33;;;19.42;;
65665;SDS011;52365;47.464;18.976;2023-01-30T03:35:35;32.45;;;19.83;;
65665;SDS011;52365;47.464;18.976;2023-01-30T03:36:11;33.13;;;19.37;;
65665;SDS011;52365;47.464;18.976;2023-01-30T03:36:48;34.33;;;20.27;;
65665;SDS011;52365;47.464;18.976;2023-01-30T03:37:25;34.08;;;20.60;;
65665;SDS011;52365;47.464;18.976;2023-01-30T03:38:01;33.45;;;19.83;;
65665;SDS011;52365;47.464;18.976;2023-01-30T03:38:38;34.90;;;19.75;;
65665;SDS011;52365;47.464;18.976;2023-01-30T03:39:14;33.42;;;19.02;;
65665;SDS011;52365;47.464;18.976;2023-01-30T03:39:50;29.90;;;18.52;;
65665;SDS011;52365;47.464;18.976;2023-01-30T03:40:26;32.10;;;18.50;;
65665;SDS011;52365;47.464;18.976;2023-01-30T03:41:02;32.38;;;19.62;;
65665;SDS011;52365;47.464;18.976;2023-01-30T03:41:39;30.35;;;18.77;;
65665;SDS011;52365;47.464;18.976;2023-01-30T03:42:16;31.17;;;18.92;;
65665;SDS011;52365;47.464;18.976;2023-01-30T03:42:52;31.98;;;19.60;;
65665;SDS011;52365;47.464;18.976;2023-01-30T03:43:28;32.60;;;19.40;;
65665;SDS011;52365;47.464;18.976;2023-01-30T03:44:04;28.58;;;18.08;;
65665;SDS011;52365;47.464;18.976;2023-01-30T03:44:40;31.50;;;19.12;;
65665;SDS011;52365;47.464;18.976;2023-01-30T03:45:16;31.23;;;19.15;;
65665;SDS011;52365;47.464;18.976;2023-01-30T03:45:53;32.75;;;19.67;;
65665;SDS011;52365;47.464;18.976;2023-01-30T03:46:29;35.35;;;20.10;;
65665;SDS011;52365;47.464;18.976;2023-01-30T03:47:05;30.83;;;19.50;;
65665;SDS011;52365;47.464;18.976;2023-01-30T03:47:41;35.15;;;19.83;;
65665;SDS011;52365;47.464;18.976;2023-01-30T03:48:17;32.58;;;19.80;;
65665;SDS011;52365;47.464;18.976;2023-01-30T03:48:53;33.28;;;19.50;;
65665;SDS011;52365;47.464;18.976;2023-01-30T03:49:29;34.10;;;21.05;;
65665;SDS011;52365;47.464;18.976;2023-01-30T03:50:05;36.42;;;20.73;;
65665;SDS011;52365;47.464;18.976;2023-01-30T03:50:42;34.50;;;20.80;;
65665;SDS011;52365;47.464;18.976;2023-01-30T03:51:18;36.40;;;20.50;;
65665;SDS011;52365;47.464;18.976;2023-01-30T03:51:54;37.22;;;21.35;;
65665;SDS011;52365;47.464;18.976;2023-01-30T03:52:31;34.80;;;21.45;;
65665;SDS011;52365;47.464;18.976;2023-01-30T03:53:09;36.03;;;20.40;;
65665;SDS011;52365;47.464;18.976;2023-01-30T03:53:45;36.13;;;21.52;;
65665;SDS011;52365;47.464;18.976;2023-01-30T03:54:21;35.05;;;21.05;;
65665;SDS011;52365;47.464;18.976;2023-01-30T03:54:57;37.05;;;22.27;;
65665;SDS011;52365;47.464;18.976;2023-01-30T03:55:33;35.47;;;21.02;;
65665;SDS011;52365;47.464;18.976;2023-01-30T03:56:10;36.97;;;21.67;;
65665;SDS011;52365;47.464;18.976;2023-01-30T03:56:46;37.75;;;21.30;;
65665;SDS011;52365;47.464;18.976;2023-01-30T03:57:22;36.38;;;20.90;;
65665;SDS011;52365;47.464;18.976;2023-01-30T03:57:58;36.13;;;21.37;;
65665;SDS011;52365;47.464;18.976;2023-01-30T03:58:34;36.92;;;21.77;;
65665;SDS011;52365;47.464;18.976;2023-01-30T03:59:10;37.20;;;21.67;;
65665;SDS011;52365;47.464;18.976;2023-01-30T03:59:46;36.08;;;21.17;;
65665;SDS011;52365;47.464;18.976;2023-01-30T04:00:22;38.28;;;21.87;;
65665;SDS011;52365;47.464;18.976;2023-01-30T04:00:58;37.58;;;21.92;;
65665;SDS011;52365;47.464;18.976;2023-01-30T04:01:34;39.05;;;22.62;;
65665;SDS011;52365;47.464;18.976;2023-01-30T04:02:10;36.58;;;22.08;;
65665;SDS011;52365;47.464;18.976;2023-01-30T04:02:47;38.05;;;21.75;;
65665;SDS011;52365;47.464;18.976;2023-01-30T04:03:23;35.70;;;21.17;;
65665;SDS011;52365;47.464;18.976;2023-01-30T04:03:59;37.72;;;21.48;;
65665;SDS011;52365;47.464;18.976;2023-01-30T04:04:35;34.38;;;20.95;;
65665;SDS011;52365;47.464;18.976;2023-01-30T04:05:11;36.35;;;21.00;;
65665;SDS011;52365;47.464;18.976;2023-01-30T04:05:47;35.97;;;21.02;;
65665;SDS011;52365;47.464;18.976;2023-01-30T04:06:23;34.05;;;20.75;;
65665;SDS011;52365;47.464;18.976;2023-01-30T04:06:59;35.00;;;20.40;;
65665;SDS011;52365;47.464;18.976;2023-01-30T04:07:35;34.63;;;20.35;;
65665;SDS011;52365;47.464;18.976;2023-01-30T04:08:11;34.55;;;20.73;;
65665;SDS011;52365;47.464;18.976;2023-01-30T04:08:50;35.78;;;21.02;;
65665;SDS011;52365;47.464;18.976;2023-01-30T04:09:27;37.35;;;21.27;;
65665;SDS011;52365;47.464;18.976;2023-01-30T04:10:04;33.63;;;20.27;;
65665;SDS011;52365;47.464;18.976;2023-01-30T04:10:41;34.72;;;20.52;;
65665;SDS011;52365;47.464;18.976;2023-01-30T04:11:17;36.63;;;21.70;;
65665;SDS011;52365;47.464;18.976;2023-01-30T04:11:53;36.15;;;21.45;;
65665;SDS011;52365;47.464;18.976;2023-01-30T04:12:29;36.67;;;21.25;;
65665;SDS011;52365;47.464;18.976;2023-01-30T04:13:05;36.55;;;21.52;;
65665;SDS011;52365;47.464;18.976;2023-01-30T04:13:41;35.25;;;21.08;;
65665;SDS011;52365;47.464;18.976;2023-01-30T04:14:17;35.95;;;21.05;;
65665;SDS011;52365;47.464;18.976;2023-01-30T04:14:53;34.67;;;20.67;;
65665;SDS011;52365;47.464;18.976;2023-01-30T04:15:29;34.20;;;21.20;;
65665;SDS011;52365;47.464;18.976;2023-01-30T04:16:51;35.40;;;20.55;;
65665;SDS011;52365;47.464;18.976;2023-01-30T04:17:27;34.45;;;21.08;;
65665;SDS011;52365;47.464;18.976;2023-01-30T04:18:03;36.08;;;21.50;;
65665;SDS011;52365;47.464;18.976;2023-01-30T04:18:39;36.00;;;21.65;;
65665;SDS011;52365;47.464;18.976;2023-01-30T04:19:15;35.63;;;21.00;;
65665;SDS011;52365;47.464;18.976;2023-01-30T04:19:51;37.83;;;21.50;;
65665;SDS011;52365;47.464;18.976;2023-01-30T04:20:27;35.35;;;21.20;;